sensor_id;sensor_type;location;lat;lon;timestamp;P1;durP1;ratioP1;P2;durP2;ratioP2
73684;SDS011;61985;51.070;14.064;2024-01-11T00:00:46;23.17;;;10.57;;
73684;SDS011;61985;51.070;14.064;2024-01-11T00:03:11;36.33;;;14.33;;
73684;SDS011;61985;51.070;14.064;2024-01-11T00:05:36;30.17;;;13.37;;
73684;SDS011;61985;51.070;14.064;2024-01-11T00:08:02;35.97;;;15.87;;
73684;SDS011;61985;51.070;14.064;2024-01-11T00:10:28;33.47;;;14.63;;
73684;SDS011;61985;51.070;14.064;2024-01-11T00:12:53;38.60;;;16.83;;
73684;SDS011;61985;51.070;14.064;2024-01-11T00:15:19;29.97;;;14.63;;
73684;SDS011;61985;51.070;14.064;2024-01-11T00:17:44;33.80;;;13.07;;
73684;SDS011;61985;51.070;14.064;2024-01-11T00:20:10;34.50;;;14.27;;
73684;SDS011;61985;51.070;14.064;2024-01-11T00:22:35;27.00;;;12.80;;
73684;SDS011;61985;51.070;14.064;2024-01-11T00:25:01;31.10;;;12.40;;
73684;SDS011;61985;51.070;14.064;2024-01-11T00:27:26;27.60;;;13.77;;
73684;SDS011;61985;51.070;14.064;2024-01-11T00:29:52;22.43;;;10.27;;
73684;SDS011;61985;51.070;14.064;2024-01-11T00:32:18;22.90;;;11.70;;
73684;SDS011;61985;51.070;14.064;2024-01-11T00:34:46;24.37;;;9.70;;
73684;SDS011;61985;51.070;14.064;2024-01-11T00:37:11;20.63;;;10.63;;
73684;SDS011;61985;51.070;14.064;2024-01-11T00:39:36;24.60;;;11.53;;
73684;SDS011;61985;51.070;14.064;2024-01-11T00:42:02;24.10;;;10.87;;
73684;SDS011;61985;51.070;14.064;2024-01-11T00:44:27;24.33;;;11.20;;
73684;SDS011;61985;51.070;14.064;2024-01-11T00:46:53;28.40;;;11.03;;
73684;SDS011;61985;51.070;14.064;2024-01-11T00:49:18;21.93;;;9.87;;
73684;SDS011;61985;51.070;14.064;2024-01-11T00:51:43;21.07;;;8.87;;
73684;SDS011;61985;51.070;14.064;2024-01-11T00:54:09;27.63;;;10.70;;
73684;SDS011;61985;51.070;14.064;2024-01-11T00:56:34;24.27;;;10.27;;
73684;SDS011;61985;51.070;14.064;2024-01-11T00:58:59;21.93;;;9.50;;
73684;SDS011;61985;51.070;14.064;2024-01-11T01:01:25;18.50;;;7.90;;
73684;SDS011;61985;51.070;14.064;2024-01-11T01:03:50;20.23;;;8.20;;
73684;SDS011;61985;51.070;14.064;2024-01-11T01:06:16;18.17;;;9.07;;
73684;SDS011;61985;51.070;14.064;2024-01-11T01:08:41;24.63;;;9.63;;
73684;SDS011;61985;51.070;14.064;2024-01-11T01:11:06;25.70;;;10.33;;
73684;SDS011;61985;51.070;14.064;2024-01-11T01:13:32;21.50;;;9.27;;
73684;SDS011;61985;51.070;14.064;2024-01-11T01:15:57;16.50;;;7.97;;
73684;SDS011;61985;51.070;14.064;2024-01-11T01:18:23;15.70;;;7.87;;
73684;SDS011;61985;51.070;14.064;2024-01-11T01:20:48;23.30;;;11.53;;
73684;SDS011;61985;51.070;14.064;2024-01-11T01:23:13;25.37;;;10.47;;
73684;SDS011;61985;51.070;14.064;2024-01-11T01:25:39;22.57;;;7.90;;
73684;SDS011;61985;51.070;14.064;2024-01-11T01:28:04;15.03;;;7.20;;
73684;SDS011;61985;51.070;14.064;2024-01-11T01:30:30;15.00;;;7.73;;
73684;SDS011;61985;51.070;14.064;2024-01-11T01:32:55;23.20;;;8.77;;
73684;SDS011;61985;51.070;14.064;2024-01-11T01:35:21;19.23;;;7.63;;
73684;SDS011;61985;51.070;14.064;2024-01-11T01:37:46;10.70;;;5.43;;
73684;SDS011;61985;51.070;14.064;2024-01-11T01:40:12;15.20;;;6.57;;
73684;SDS011;61985;51.070;14.064;2024-01-11T01:42:43;17.10;;;6.33;;
73684;SDS011;61985;51.070;14.064;2024-01-11T01:45:10;10.37;;;5.50;;
73684;SDS011;61985;51.070;14.064;2024-01-11T01:47:36;16.63;;;6.87;;
73684;SDS011;61985;51.070;14.064;2024-01-11T01:50:03;15.93;;;6.57;;
73684;SDS011;61985;51.070;14.064;2024-01-11T01:52:29;12.57;;;5.90;;
73684;SDS011;61985;51.070;14.064;2024-01-11T01:54:54;16.00;;;7.13;;
73684;SDS011;61985;51.070;14.064;2024-01-11T01:57:22;17.67;;;8.17;;
73684;SDS011;61985;51.070;14.064;2024-01-11T01:59:49;15.00;;;6.37;;
73684;SDS011;61985;51.070;14.064;2024-01-11T02:02:17;23.73;;;7.23;;
73684;SDS011;61985;51.070;14.064;2024-01-11T02:04:44;14.10;;;6.63;;
73684;SDS011;61985;51.070;14.064;2024-01-11T02:07:10;17.03;;;6.73;;
73684;SDS011;61985;51.070;14.064;2024-01-11T02:09:36;11.47;;;5.03;;
73684;SDS011;61985;51.070;14.064;2024-01-11T02:12:02;14.53;;;5.77;;
73684;SDS011;61985;51.070;14.064;2024-01-11T02:14:28;17.57;;;7.87;;
73684;SDS011;61985;51.070;14.064;2024-01-11T02:16:53;21.17;;;8.90;;
73684;SDS011;61985;51.070;14.064;2024-01-11T02:19:19;25.33;;;9.57;;
73684;SDS011;61985;51.070;14.064;2024-01-11T02:21:45;16.63;;;8.23;;
73684;SDS011;61985;51.070;14.064;2024-01-11T02:24:12;15.17;;;5.57;;
73684;SDS011;61985;51.070;14.064;2024-01-11T02:26:44;11.43;;;6.00;;
73684;SDS011;61985;51.070;14.064;2024-01-11T02:29:23;20.50;;;6.50;;
73684;SDS011;61985;51.070;14.064;2024-01-11T02:31:48;15.83;;;6.67;;
73684;SDS011;61985;51.070;14.064;2024-01-11T02:34:14;16.47;;;6.67;;
73684;SDS011;61985;51.070;14.064;2024-01-11T02:36:39;15.80;;;5.97;;
73684;SDS011;61985;51.070;14.064;2024-01-11T02:39:05;16.10;;;6.47;;
73684;SDS011;61985;51.070;14.064;2024-01-11T02:41:30;17.60;;;6.70;;
73684;SDS011;61985;51.070;14.064;2024-01-11T02:43:57;14.07;;;6.63;;
73684;SDS011;61985;51.070;14.064;2024-01-11T02:46:23;11.47;;;5.73;;
73684;SDS011;61985;51.070;14.064;2024-01-11T02:48:49;12.10;;;5.30;;
73684;SDS011;61985;51.070;14.064;2024-01-11T02:51:14;14.27;;;5.67;;
73684;SDS011;61985;51.070;14.064;2024-01-11T02:53:39;13.70;;;6.73;;
73684;SDS011;61985;51.070;14.064;2024-01-11T02:56:05;18.50;;;5.37;;
73684;SDS011;61985;51.070;14.064;2024-01-11T02:58:30;14.80;;;6.60;;
73684;SDS011;61985;51.070;14.064;2024-01-11T03:00:55;12.47;;;5.80;;
73684;SDS011;61985;51.070;14.064;2024-01-11T03:03:21;16.00;;;6.43;;
73684;SDS011;61985;51.070;14.064;2024-01-11T03:05:46;17.73;;;5.90;;
73684;SDS011;61985;51.070;14.064;2024-01-11T03:08:11;11.30;;;5.07;;
73684;SDS011;61985;51.070;14.064;2024-01-11T03:10:37;15.27;;;6.50;;
73684;SDS011;61985;51.070;14.064;2024-01-11T03:13:03;9.27;;;4.83;;
73684;SDS011;61985;51.070;14.064;2024-01-11T03:15:29;13.60;;;7.50;;
73684;SDS011;61985;51.070;14.064;2024-01-11T03:17:54;16.33;;;6.27;;
73684;SDS011;61985;51.070;14.064;2024-01-11T03:20:19;12.83;;;5.27;;
73684;SDS011;61985;51.070;14.064;2024-01-11T03:22:49;13.20;;;5.53;;
73684;SDS011;61985;51.070;14.064;2024-01-11T03:25:14;14.33;;;5.90;;
73684;SDS011;61985;51.070;14.064;2024-01-11T03:27:40;15.30;;;6.83;;
73684;SDS011;61985;51.070;14.064;2024-01-11T03:30:06;14.73;;;5.93;;
73684;SDS011;61985;51.070;14.064;2024-01-11T03:32:31;15.50;;;5.67;;
73684;SDS011;61985;51.070;14.064;2024-01-11T03:34:57;16.87;;;7.37;;
73684;SDS011;61985;51.070;14.064;2024-01-11T03:37:22;15.83;;;8.03;;
73684;SDS011;61985;51.070;14.064;2024-01-11T03:39:47;15.70;;;8.60;;
73684;SDS011;61985;51.070;14.064;2024-01-11T03:42:13;16.60;;;8.13;;
73684;SDS011;61985;51.070;14.064;2024-01-11T03:44:38;24.20;;;6.80;;
73684;SDS011;61985;51.070;14.064;2024-01-11T03:47:03;14.73;;;6.67;;
73684;SDS011;61985;51.070;14.064;2024-01-11T03:49:29;19.70;;;8.57;;
73684;SDS011;61985;51.070;14.064;2024-01-11T03:51:54;19.07;;;8.43;;
73684;SDS011;61985;51.070;14.064;2024-01-11T03:54:19;22.83;;;10.40;;
73684;SDS011;61985;51.070;14.064;2024-01-11T03:56:45;21.90;;;10.03;;
73684;SDS011;61985;51.070;14.064;2024-01-11T03:59:10;22.07;;;8.50;;
73684;SDS011;61985;51.070;14.064;2024-01-11T04:01:40;19.97;;;9.00;;
73684;SDS011;61985;51.070;14.064;2024-01-11T04:04:05;15.93;;;7.00;;
73684;SDS011;61985;51.070;14.064;2024-01-11T04:06:31;18.87;;;9.70;;
73684;SDS011;61985;51.070;14.064;2024-01-11T04:08:56;19.30;;;9.07;;
73684;SDS011;61985;51.070;14.064;2024-01-11T04:11:21;17.93;;;7.73;;
73684;SDS011;61985;51.070;14.064;2024-01-11T04:13:47;22.20;;;7.90;;
73684;SDS011;61985;51.070;14.064;2024-01-11T04:16:12;16.60;;;7.97;;
73684;SDS011;61985;51.070;14.064;2024-01-11T04:18:38;20.10;;;8.73;;
73684;SDS011;61985;51.070;14.064;2024-01-11T04:21:04;15.73;;;7.27;;
73684;SDS011;61985;51.070;14.064;2024-01-11T04:23:29;14.50;;;6.30;;
73684;SDS011;61985;51.070;14.064;2024-01-11T04:25:55;16.77;;;7.13;;
73684;SDS011;61985;51.070;14.064;2024-01-11T04:28:21;19.13;;;8.33;;
73684;SDS011;61985;51.070;14.064;2024-01-11T04:30:46;16.87;;;7.30;;
73684;SDS011;61985;51.070;14.064;2024-01-11T04:33:11;18.53;;;5.87;;
73684;SDS011;61985;51.070;14.064;2024-01-11T04:35:37;16.07;;;7.00;;
73684;SDS011;61985;51.070;14.064;2024-01-11T04:38:02;17.37;;;5.80;;
73684;SDS011;61985;51.070;14.064;2024-01-11T04:40:28;12.20;;;6.47;;
73684;SDS011;61985;51.070;14.064;2024-01-11T04:42:53;19.13;;;7.17;;
73684;SDS011;61985;51.070;14.064;2024-01-11T04:45:19;13.97;;;6.00;;
73684;SDS011;61985;51.070;14.064;2024-01-11T04:47:44;15.53;;;6.63;;
73684;SDS011;61985;51.070;14.064;2024-01-11T04:50:09;13.33;;;6.43;;
73684;SDS011;61985;51.070;14.064;2024-01-11T04:52:35;16.63;;;6.60;;
73684;SDS011;61985;51.070;14.064;2024-01-11T04:55:00;17.43;;;7.33;;
73684;SDS011;61985;51.070;14.064;2024-01-11T04:57:26;15.00;;;5.93;;
73684;SDS011;61985;51.070;14.064;2024-01-11T04:59:52;16.57;;;6.97;;
73684;SDS011;61985;51.070;14.064;2024-01-11T05:02:20;15.47;;;6.03;;
73684;SDS011;61985;51.070;14.064;2024-01-11T05:04:45;11.37;;;6.43;;
73684;SDS011;61985;51.070;14.064;2024-01-11T05:07:11;17.47;;;8.73;;
73684;SDS011;61985;51.070;14.064;2024-01-11T05:09:36;20.00;;;8.10;;
73684;SDS011;61985;51.070;14.064;2024-01-11T05:12:02;20.47;;;8.43;;
73684;SDS011;61985;51.070;14.064;2024-01-11T05:14:27;17.33;;;8.50;;
73684;SDS011;61985;51.070;14.064;2024-01-11T05:16:53;14.67;;;6.90;;
73684;SDS011;61985;51.070;14.064;2024-01-11T05:19:18;25.47;;;8.27;;
73684;SDS011;61985;51.070;14.064;2024-01-11T05:21:44;18.53;;;7.43;;
73684;SDS011;61985;51.070;14.064;2024-01-11T05:24:09;13.67;;;6.53;;
73684;SDS011;61985;51.070;14.064;2024-01-11T05:26:34;22.73;;;9.13;;
73684;SDS011;61985;51.070;14.064;2024-01-11T05:29:00;16.70;;;7.47;;
73684;SDS011;61985;51.070;14.064;2024-01-11T05:31:25;19.40;;;8.33;;
73684;SDS011;61985;51.070;14.064;2024-01-11T05:33:51;19.47;;;7.97;;
73684;SDS011;61985;51.070;14.064;2024-01-11T05:36:16;17.60;;;7.17;;
73684;SDS011;61985;51.070;14.064;2024-01-11T05:38:41;17.57;;;6.80;;
73684;SDS011;61985;51.070;14.064;2024-01-11T05:41:07;15.27;;;6.80;;
73684;SDS011;61985;51.070;14.064;2024-01-11T05:43:33;18.90;;;9.23;;
73684;SDS011;61985;51.070;14.064;2024-01-11T05:45:58;60.00;;;18.70;;
73684;SDS011;61985;51.070;14.064;2024-01-11T05:48:23;45.80;;;18.67;;
73684;SDS011;61985;51.070;14.064;2024-01-11T05:50:49;18.27;;;9.50;;
73684;SDS011;61985;51.070;14.064;2024-01-11T05:53:15;15.03;;;7.67;;
73684;SDS011;61985;51.070;14.064;2024-01-11T05:55:42;30.00;;;10.37;;
73684;SDS011;61985;51.070;14.064;2024-01-11T05:58:07;29.07;;;14.97;;
73684;SDS011;61985;51.070;14.064;2024-01-11T06:00:32;17.57;;;9.57;;
73684;SDS011;61985;51.070;14.064;2024-01-11T06:02:58;19.10;;;8.50;;
73684;SDS011;61985;51.070;14.064;2024-01-11T06:05:24;21.03;;;8.63;;
73684;SDS011;61985;51.070;14.064;2024-01-11T06:07:50;15.87;;;8.40;;
73684;SDS011;61985;51.070;14.064;2024-01-11T06:10:15;21.80;;;8.63;;
73684;SDS011;61985;51.070;14.064;2024-01-11T06:12:41;15.13;;;7.07;;
73684;SDS011;61985;51.070;14.064;2024-01-11T06:15:07;11.77;;;6.93;;
73684;SDS011;61985;51.070;14.064;2024-01-11T06:17:33;16.07;;;6.87;;
73684;SDS011;61985;51.070;14.064;2024-01-11T06:19:58;15.33;;;8.33;;
73684;SDS011;61985;51.070;14.064;2024-01-11T06:22:23;14.67;;;7.13;;
73684;SDS011;61985;51.070;14.064;2024-01-11T06:24:49;18.37;;;8.47;;
73684;SDS011;61985;51.070;14.064;2024-01-11T06:27:14;15.63;;;6.33;;
73684;SDS011;61985;51.070;14.064;2024-01-11T06:29:39;18.27;;;7.03;;
73684;SDS011;61985;51.070;14.064;2024-01-11T06:32:05;18.90;;;6.60;;
73684;SDS011;61985;51.070;14.064;2024-01-11T06:34:31;19.60;;;7.50;;
73684;SDS011;61985;51.070;14.064;2024-01-11T06:36:56;20.43;;;8.60;;
73684;SDS011;61985;51.070;14.064;2024-01-11T06:39:21;15.63;;;7.03;;
73684;SDS011;61985;51.070;14.064;2024-01-11T06:41:47;21.90;;;7.60;;
73684;SDS011;61985;51.070;14.064;2024-01-11T06:44:12;15.67;;;7.73;;
73684;SDS011;61985;51.070;14.064;2024-01-11T06:46:38;15.23;;;7.03;;
73684;SDS011;61985;51.070;14.064;2024-01-11T06:49:07;14.93;;;8.50;;
73684;SDS011;61985;51.070;14.064;2024-01-11T06:51:32;23.83;;;9.13;;
73684;SDS011;61985;51.070;14.064;2024-01-11T06:53:58;26.97;;;11.80;;
73684;SDS011;61985;51.070;14.064;2024-01-11T06:56:26;26.93;;;10.87;;
73684;SDS011;61985;51.070;14.064;2024-01-11T06:58:51;18.07;;;9.00;;
73684;SDS011;61985;51.070;14.064;2024-01-11T07:01:17;25.70;;;9.40;;
73684;SDS011;61985;51.070;14.064;2024-01-11T07:03:42;25.40;;;9.03;;
73684;SDS011;61985;51.070;14.064;2024-01-11T07:06:08;25.53;;;10.23;;
73684;SDS011;61985;51.070;14.064;2024-01-11T07:08:34;20.40;;;8.20;;
73684;SDS011;61985;51.070;14.064;2024-01-11T07:11:00;17.87;;;8.40;;
73684;SDS011;61985;51.070;14.064;2024-01-11T07:13:27;18.47;;;8.33;;
73684;SDS011;61985;51.070;14.064;2024-01-11T07:15:53;26.37;;;8.93;;
73684;SDS011;61985;51.070;14.064;2024-01-11T07:18:20;15.77;;;7.43;;
73684;SDS011;61985;51.070;14.064;2024-01-11T07:20:46;15.47;;;7.57;;
73684;SDS011;61985;51.070;14.064;2024-01-11T07:23:12;16.33;;;7.13;;
73684;SDS011;61985;51.070;14.064;2024-01-11T07:25:38;17.77;;;8.43;;
73684;SDS011;61985;51.070;14.064;2024-01-11T07:28:04;17.40;;;8.20;;
73684;SDS011;61985;51.070;14.064;2024-01-11T07:30:30;15.13;;;7.80;;
73684;SDS011;61985;51.070;14.064;2024-01-11T07:32:55;19.60;;;7.40;;
73684;SDS011;61985;51.070;14.064;2024-01-11T07:35:20;14.50;;;7.13;;
73684;SDS011;61985;51.070;14.064;2024-01-11T07:37:46;19.93;;;7.83;;
73684;SDS011;61985;51.070;14.064;2024-01-11T07:40:11;15.67;;;7.43;;
73684;SDS011;61985;51.070;14.064;2024-01-11T07:42:38;18.77;;;8.47;;
73684;SDS011;61985;51.070;14.064;2024-01-11T07:45:04;17.07;;;9.00;;
73684;SDS011;61985;51.070;14.064;2024-01-11T07:47:31;22.00;;;8.17;;
73684;SDS011;61985;51.070;14.064;2024-01-11T07:49:56;22.37;;;8.57;;
73684;SDS011;61985;51.070;14.064;2024-01-11T07:52:22;14.60;;;8.20;;
73684;SDS011;61985;51.070;14.064;2024-01-11T07:54:47;24.33;;;10.00;;
73684;SDS011;61985;51.070;14.064;2024-01-11T07:57:13;19.77;;;9.70;;
73684;SDS011;61985;51.070;14.064;2024-01-11T07:59:38;22.67;;;9.63;;
73684;SDS011;61985;51.070;14.064;2024-01-11T08:02:04;23.23;;;11.03;;
73684;SDS011;61985;51.070;14.064;2024-01-11T08:04:31;23.97;;;10.40;;
73684;SDS011;61985;51.070;14.064;2024-01-11T08:06:56;23.13;;;11.17;;
73684;SDS011;61985;51.070;14.064;2024-01-11T08:09:23;21.47;;;9.97;;
73684;SDS011;61985;51.070;14.064;2024-01-11T08:11:48;24.67;;;10.90;;
73684;SDS011;61985;51.070;14.064;2024-01-11T08:14:14;24.80;;;12.90;;
73684;SDS011;61985;51.070;14.064;2024-01-11T08:16:40;21.13;;;10.20;;
73684;SDS011;61985;51.070;14.064;2024-01-11T08:19:06;17.27;;;8.60;;
73684;SDS011;61985;51.070;14.064;2024-01-11T08:21:31;17.97;;;8.90;;
73684;SDS011;61985;51.070;14.064;2024-01-11T08:23:56;16.47;;;8.07;;
73684;SDS011;61985;51.070;14.064;2024-01-11T08:26:22;26.80;;;9.37;;
73684;SDS011;61985;51.070;14.064;2024-01-11T08:28:47;42.37;;;22.10;;
73684;SDS011;61985;51.070;14.064;2024-01-11T08:31:13;28.77;;;14.70;;
73684;SDS011;61985;51.070;14.064;2024-01-11T08:33:38;27.73;;;10.90;;
73684;SDS011;61985;51.070;14.064;2024-01-11T08:36:04;16.50;;;8.47;;
73684;SDS011;61985;51.070;14.064;2024-01-11T08:38:31;24.90;;;10.50;;
73684;SDS011;61985;51.070;14.064;2024-01-11T08:40:57;21.97;;;9.63;;
73684;SDS011;61985;51.070;14.064;2024-01-11T08:43:23;27.67;;;11.77;;
73684;SDS011;61985;51.070;14.064;2024-01-11T08:45:52;20.87;;;9.67;;
73684;SDS011;61985;51.070;14.064;2024-01-11T08:48:23;22.40;;;9.37;;
73684;SDS011;61985;51.070;14.064;2024-01-11T08:50:48;20.37;;;9.43;;
73684;SDS011;61985;51.070;14.064;2024-01-11T08:53:13;26.77;;;11.83;;
73684;SDS011;61985;51.070;14.064;2024-01-11T08:55:40;43.67;;;18.87;;
73684;SDS011;61985;51.070;14.064;2024-01-11T08:58:06;30.33;;;13.23;;
73684;SDS011;61985;51.070;14.064;2024-01-11T09:00:31;28.17;;;13.17;;
73684;SDS011;61985;51.070;14.064;2024-01-11T09:02:57;27.97;;;11.83;;
73684;SDS011;61985;51.070;14.064;2024-01-11T09:05:23;26.13;;;11.73;;
73684;SDS011;61985;51.070;14.064;2024-01-11T09:07:55;26.48;;;12.50;;
73684;SDS011;61985;51.070;14.064;2024-01-11T09:10:28;30.93;;;12.30;;
73684;SDS011;61985;51.070;14.064;2024-01-11T09:12:53;31.43;;;13.43;;
73684;SDS011;61985;51.070;14.064;2024-01-11T09:15:20;35.40;;;14.67;;
73684;SDS011;61985;51.070;14.064;2024-01-11T09:17:51;31.38;;;13.57;;
73684;SDS011;61985;51.070;14.064;2024-01-11T09:20:21;31.83;;;13.57;;
73684;SDS011;61985;51.070;14.064;2024-01-11T09:22:46;31.17;;;14.33;;
73684;SDS011;61985;51.070;14.064;2024-01-11T09:25:11;30.77;;;13.83;;
73684;SDS011;61985;51.070;14.064;2024-01-11T09:27:37;27.43;;;12.97;;
73684;SDS011;61985;51.070;14.064;2024-01-11T09:30:03;35.77;;;15.10;;
73684;SDS011;61985;51.070;14.064;2024-01-11T09:32:29;37.20;;;16.30;;
73684;SDS011;61985;51.070;14.064;2024-01-11T09:34:56;32.57;;;13.53;;
73684;SDS011;61985;51.070;14.064;2024-01-11T09:37:22;32.70;;;15.43;;
73684;SDS011;61985;51.070;14.064;2024-01-11T09:39:56;40.73;;;17.63;;
73684;SDS011;61985;51.070;14.064;2024-01-11T09:42:33;44.43;;;17.60;;
73684;SDS011;61985;51.070;14.064;2024-01-11T09:44:59;43.33;;;16.63;;
73684;SDS011;61985;51.070;14.064;2024-01-11T09:47:31;35.70;;;15.80;;
73684;SDS011;61985;51.070;14.064;2024-01-11T09:50:03;31.50;;;15.60;;
73684;SDS011;61985;51.070;14.064;2024-01-11T09:52:30;42.33;;;15.53;;
73684;SDS011;61985;51.070;14.064;2024-01-11T09:54:58;48.50;;;19.40;;
73684;SDS011;61985;51.070;14.064;2024-01-11T09:57:30;38.90;;;17.43;;
73684;SDS011;61985;51.070;14.064;2024-01-11T09:59:59;50.17;;;20.17;;
73684;SDS011;61985;51.070;14.064;2024-01-11T10:02:36;44.73;;;20.00;;
73684;SDS011;61985;51.070;14.064;2024-01-11T10:05:06;44.97;;;18.80;;
73684;SDS011;61985;51.070;14.064;2024-01-11T10:07:44;57.63;;;21.90;;
73684;SDS011;61985;51.070;14.064;2024-01-11T10:10:19;54.63;;;24.57;;
73684;SDS011;61985;51.070;14.064;2024-01-11T10:12:44;46.27;;;19.83;;
73684;SDS011;61985;51.070;14.064;2024-01-11T10:15:12;79.33;;;27.57;;
73684;SDS011;61985;51.070;14.064;2024-01-11T10:17:47;136.70;;;50.60;;
73684;SDS011;61985;51.070;14.064;2024-01-11T10:20:16;131.30;;;55.40;;
73684;SDS011;61985;51.070;14.064;2024-01-11T10:22:50;46.93;;;21.63;;
73684;SDS011;61985;51.070;14.064;2024-01-11T10:25:21;63.10;;;30.40;;
73684;SDS011;61985;51.070;14.064;2024-01-11T10:27:54;52.37;;;22.50;;
73684;SDS011;61985;51.070;14.064;2024-01-11T10:30:24;45.17;;;20.70;;
73684;SDS011;61985;51.070;14.064;2024-01-11T10:32:54;48.40;;;20.83;;
73684;SDS011;61985;51.070;14.064;2024-01-11T10:35:23;56.03;;;23.77;;
73684;SDS011;61985;51.070;14.064;2024-01-11T10:37:53;47.67;;;20.27;;
73684;SDS011;61985;51.070;14.064;2024-01-11T10:40:19;45.97;;;21.07;;
73684;SDS011;61985;51.070;14.064;2024-01-11T10:42:51;58.05;;;24.70;;
73684;SDS011;61985;51.070;14.064;2024-01-11T10:45:17;38.07;;;15.73;;
73684;SDS011;61985;51.070;14.064;2024-01-11T10:47:51;49.20;;;21.70;;
73684;SDS011;61985;51.070;14.064;2024-01-11T10:50:19;48.93;;;21.33;;
73684;SDS011;61985;51.070;14.064;2024-01-11T10:55:42;37.33;;;15.63;;
73684;SDS011;61985;51.070;14.064;2024-01-11T10:58:08;38.83;;;18.27;;
73684;SDS011;61985;51.070;14.064;2024-01-11T11:00:35;54.33;;;21.77;;
73684;SDS011;61985;51.070;14.064;2024-01-11T11:03:02;42.70;;;18.40;;
73684;SDS011;61985;51.070;14.064;2024-01-11T11:05:29;50.87;;;21.10;;
73684;SDS011;61985;51.070;14.064;2024-01-11T11:07:55;47.00;;;21.27;;
73684;SDS011;61985;51.070;14.064;2024-01-11T11:43:57;46.53;;;17.75;;
73684;SDS011;61985;51.070;14.064;2024-01-11T11:56:17;51.57;;;24.00;;
73684;SDS011;61985;51.070;14.064;2024-01-11T11:59:07;41.90;;;16.37;;
73684;SDS011;61985;51.070;14.064;2024-01-11T12:01:51;44.40;;;18.57;;
73684;SDS011;61985;51.070;14.064;2024-01-11T12:04:24;50.13;;;21.80;;
73684;SDS011;61985;51.070;14.064;2024-01-11T12:10:46;47.10;;;18.47;;
73684;SDS011;61985;51.070;14.064;2024-01-11T12:13:32;44.53;;;17.75;;
73684;SDS011;61985;51.070;14.064;2024-01-11T12:16:14;38.58;;;16.52;;
73684;SDS011;61985;51.070;14.064;2024-01-11T12:19:19;37.63;;;15.65;;
73684;SDS011;61985;51.070;14.064;2024-01-11T12:22:10;42.92;;;16.77;;
73684;SDS011;61985;51.070;14.064;2024-01-11T12:25:29;53.42;;;19.98;;
73684;SDS011;61985;51.070;14.064;2024-01-11T12:28:16;42.33;;;17.77;;
73684;SDS011;61985;51.070;14.064;2024-01-11T12:31:00;41.83;;;19.73;;
73684;SDS011;61985;51.070;14.064;2024-01-11T12:50:20;49.67;;;17.90;;
73684;SDS011;61985;51.070;14.064;2024-01-11T12:56:48;43.20;;;17.02;;
73684;SDS011;61985;51.070;14.064;2024-01-11T12:59:37;47.20;;;19.25;;
73684;SDS011;61985;51.070;14.064;2024-01-11T13:02:05;48.65;;;18.38;;
73684;SDS011;61985;51.070;14.064;2024-01-11T13:04:38;65.55;;;26.83;;
73684;SDS011;61985;51.070;14.064;2024-01-11T13:07:33;88.90;;;36.38;;
73684;SDS011;61985;51.070;14.064;2024-01-11T13:10:21;47.85;;;17.92;;
73684;SDS011;61985;51.070;14.064;2024-01-11T13:12:55;53.20;;;20.92;;
73684;SDS011;61985;51.070;14.064;2024-01-11T13:15:35;54.65;;;23.23;;
73684;SDS011;61985;51.070;14.064;2024-01-11T13:18:19;45.38;;;18.33;;
73684;SDS011;61985;51.070;14.064;2024-01-11T13:21:04;49.47;;;22.45;;
73684;SDS011;61985;51.070;14.064;2024-01-11T13:23:35;45.00;;;18.85;;
73684;SDS011;61985;51.070;14.064;2024-01-11T13:26:42;45.13;;;18.67;;
73684;SDS011;61985;51.070;14.064;2024-01-11T13:29:39;51.60;;;16.73;;
73684;SDS011;61985;51.070;14.064;2024-01-11T13:32:26;52.63;;;21.38;;
73684;SDS011;61985;51.070;14.064;2024-01-11T13:38:18;39.47;;;18.10;;
73684;SDS011;61985;51.070;14.064;2024-01-11T13:41:25;41.00;;;16.00;;
73684;SDS011;61985;51.070;14.064;2024-01-11T13:50:44;40.90;;;15.07;;
73684;SDS011;61985;51.070;14.064;2024-01-11T13:53:56;42.53;;;16.90;;
73684;SDS011;61985;51.070;14.064;2024-01-11T13:57:17;46.78;;;16.17;;
73684;SDS011;61985;51.070;14.064;2024-01-11T15:30:32;38.70;;;17.97;;
73684;SDS011;61985;51.070;14.064;2024-01-11T15:40:48;41.77;;;17.27;;
73684;SDS011;61985;51.070;14.064;2024-01-11T15:44:09;52.23;;;21.80;;
73684;SDS011;61985;51.070;14.064;2024-01-11T15:46:57;42.57;;;17.77;;
73684;SDS011;61985;51.070;14.064;2024-01-11T15:49:43;48.92;;;17.65;;
73684;SDS011;61985;51.070;14.064;2024-01-11T15:52:22;43.40;;;19.17;;
73684;SDS011;61985;51.070;14.064;2024-01-11T15:54:57;36.78;;;16.13;;
73684;SDS011;61985;51.070;14.064;2024-01-11T15:57:31;44.90;;;18.47;;
73684;SDS011;61985;51.070;14.064;2024-01-11T15:59:57;36.20;;;15.83;;
73684;SDS011;61985;51.070;14.064;2024-01-11T16:02:25;49.70;;;19.17;;
73684;SDS011;61985;51.070;14.064;2024-01-11T16:04:51;49.63;;;20.53;;
73684;SDS011;61985;51.070;14.064;2024-01-11T16:07:16;41.47;;;18.60;;
73684;SDS011;61985;51.070;14.064;2024-01-11T16:09:42;40.60;;;14.93;;
73684;SDS011;61985;51.070;14.064;2024-01-11T16:12:10;40.47;;;16.47;;
73684;SDS011;61985;51.070;14.064;2024-01-11T16:14:35;41.10;;;16.00;;
73684;SDS011;61985;51.070;14.064;2024-01-11T16:17:03;33.63;;;15.57;;
73684;SDS011;61985;51.070;14.064;2024-01-11T16:19:29;44.77;;;19.57;;
73684;SDS011;61985;51.070;14.064;2024-01-11T16:21:58;46.13;;;17.73;;
73684;SDS011;61985;51.070;14.064;2024-01-11T16:24:28;45.57;;;17.27;;
73684;SDS011;61985;51.070;14.064;2024-01-11T16:27:00;39.07;;;16.33;;
73684;SDS011;61985;51.070;14.064;2024-01-11T16:29:28;45.57;;;17.40;;
73684;SDS011;61985;51.070;14.064;2024-01-11T16:31:53;45.63;;;16.07;;
73684;SDS011;61985;51.070;14.064;2024-01-11T16:34:19;47.33;;;19.50;;
73684;SDS011;61985;51.070;14.064;2024-01-11T16:36:46;47.63;;;17.67;;
73684;SDS011;61985;51.070;14.064;2024-01-11T16:39:12;44.93;;;17.07;;
73684;SDS011;61985;51.070;14.064;2024-01-11T16:41:38;41.23;;;16.07;;
73684;SDS011;61985;51.070;14.064;2024-01-11T16:44:05;44.93;;;17.27;;
73684;SDS011;61985;51.070;14.064;2024-01-11T16:46:32;39.33;;;17.80;;
73684;SDS011;61985;51.070;14.064;2024-01-11T16:48:58;43.23;;;17.60;;
73684;SDS011;61985;51.070;14.064;2024-01-11T16:51:26;37.47;;;17.43;;
73684;SDS011;61985;51.070;14.064;2024-01-11T16:53:53;38.03;;;16.63;;
73684;SDS011;61985;51.070;14.064;2024-01-11T16:56:19;45.63;;;18.73;;
73684;SDS011;61985;51.070;14.064;2024-01-11T16:58:46;48.80;;;16.57;;
73684;SDS011;61985;51.070;14.064;2024-01-11T17:01:12;44.70;;;18.73;;
73684;SDS011;61985;51.070;14.064;2024-01-11T17:03:37;44.30;;;16.00;;
73684;SDS011;61985;51.070;14.064;2024-01-11T17:06:03;34.73;;;16.47;;
73684;SDS011;61985;51.070;14.064;2024-01-11T17:08:29;41.23;;;17.73;;
73684;SDS011;61985;51.070;14.064;2024-01-11T17:10:54;38.37;;;14.63;;
73684;SDS011;61985;51.070;14.064;2024-01-11T17:13:20;38.53;;;17.53;;
73684;SDS011;61985;51.070;14.064;2024-01-11T17:15:47;39.97;;;18.03;;
73684;SDS011;61985;51.070;14.064;2024-01-11T17:18:12;42.90;;;16.70;;
73684;SDS011;61985;51.070;14.064;2024-01-11T17:20:39;45.77;;;16.50;;
73684;SDS011;61985;51.070;14.064;2024-01-11T17:23:05;36.93;;;16.00;;